Kiamichi Christian Mission, Oklahoma
Current Conditions -  °F | °C
As of 7:55 PM on Saturday 25 Oct 2014 (Local Time) from KRKR Reporting Station
Clear Clear  
Wind Chill: 67°   Ceiling: Unl
Heat Index: 67°   Visibility: 10mi
Dew Point: 64°   Wind: 5mph
Humidity: 90%   Direction: 210°SSW
Pressure: 30.03"   Gusts: NA
Location:  34.5987°N, 94.9886°W
Report Text: KRKR 260055Z AUTO 21004KT 10SM CLR 20/18 A3003 RMK AO2 T01950178
Loading
Personal Weather Stations






























Interactive Weather Map
Tropical Storm Tracking
New forecast layout! Learn more

10-Day Weather Forecast

Advertisements
Track Severe Weather on mobile